Terminal Aerodrome Forecast
Issued by NWS Grand Junction, CO

Home | Current Version | Previous Version | Text Only | Print | Product List | Glossary On
Versions: 1 2 3 4 5 6 7 8 9 10 11 12 13 14 15 16 17 18 19 20 21 22 23 24 25 26 27 28 29 30 31 32 33 34
000
FTUS45 KGJT 101142
TAFGJT
TAF
KGJT 101142Z 1012/1112 00000KT P6SM BKN200
     FM101700 14005KT P6SM SCT140 OVC200
     FM101900 30004KT P6SM VCSH OVC100
     FM110100 03004KT P6SM VCSH OVC045
     FM110700 04006KT P6SM -RASN OVC035
     FM110900 32006KT 3SM -SNRA BR OVC020=

USA.gov is the U.S. government's official web portal to all federal, state and local government web resources and services.